sensor_id;sensor_type;location;lat;lon;timestamp;P1;durP1;ratioP1;P2;durP2;ratioP2
8592;SDS011;4334;49.982;8.398;2024-01-07T00:02:20;3.20;;;2.03;;
8592;SDS011;4334;49.982;8.398;2024-01-07T00:04:47;3.70;;;2.30;;
8592;SDS011;4334;49.982;8.398;2024-01-07T00:07:14;3.10;;;2.30;;
8592;SDS011;4334;49.982;8.398;2024-01-07T00:09:40;3.23;;;2.10;;
8592;SDS011;4334;49.982;8.398;2024-01-07T00:12:07;3.70;;;2.60;;
8592;SDS011;4334;49.982;8.398;2024-01-07T00:14:34;3.57;;;2.40;;
8592;SDS011;4334;49.982;8.398;2024-01-07T00:17:01;4.43;;;2.70;;
8592;SDS011;4334;49.982;8.398;2024-01-07T00:19:29;3.40;;;2.50;;
8592;SDS011;4334;49.982;8.398;2024-01-07T00:21:56;4.17;;;2.43;;
8592;SDS011;4334;49.982;8.398;2024-01-07T00:24:23;3.53;;;2.33;;
8592;SDS011;4334;49.982;8.398;2024-01-07T00:26:53;6.90;;;2.83;;
8592;SDS011;4334;49.982;8.398;2024-01-07T00:29:19;4.37;;;2.90;;
8592;SDS011;4334;49.982;8.398;2024-01-07T00:31:46;3.77;;;2.73;;
8592;SDS011;4334;49.982;8.398;2024-01-07T00:34:13;4.47;;;2.67;;
8592;SDS011;4334;49.982;8.398;2024-01-07T00:36:41;5.23;;;2.87;;
8592;SDS011;4334;49.982;8.398;2024-01-07T00:39:07;4.90;;;3.30;;
8592;SDS011;4334;49.982;8.398;2024-01-07T00:41:34;5.00;;;2.87;;
8592;SDS011;4334;49.982;8.398;2024-01-07T00:44:01;6.27;;;2.73;;
8592;SDS011;4334;49.982;8.398;2024-01-07T00:46:27;3.83;;;3.00;;
8592;SDS011;4334;49.982;8.398;2024-01-07T00:48:54;4.53;;;2.93;;
8592;SDS011;4334;49.982;8.398;2024-01-07T00:51:20;4.10;;;2.63;;
8592;SDS011;4334;49.982;8.398;2024-01-07T00:53:48;5.73;;;3.53;;
8592;SDS011;4334;49.982;8.398;2024-01-07T00:56:14;4.80;;;2.83;;
8592;SDS011;4334;49.982;8.398;2024-01-07T00:58:41;6.27;;;3.73;;
8592;SDS011;4334;49.982;8.398;2024-01-07T01:01:08;6.03;;;3.77;;
8592;SDS011;4334;49.982;8.398;2024-01-07T01:03:34;4.77;;;3.00;;
8592;SDS011;4334;49.982;8.398;2024-01-07T01:06:01;5.87;;;3.50;;
8592;SDS011;4334;49.982;8.398;2024-01-07T01:08:28;4.67;;;3.27;;
8592;SDS011;4334;49.982;8.398;2024-01-07T01:10:56;5.00;;;3.57;;
8592;SDS011;4334;49.982;8.398;2024-01-07T01:13:23;5.37;;;3.17;;
8592;SDS011;4334;49.982;8.398;2024-01-07T01:15:49;5.70;;;3.83;;
8592;SDS011;4334;49.982;8.398;2024-01-07T01:18:17;6.43;;;3.30;;
8592;SDS011;4334;49.982;8.398;2024-01-07T01:20:44;4.57;;;3.33;;
8592;SDS011;4334;49.982;8.398;2024-01-07T01:23:10;5.33;;;3.30;;
8592;SDS011;4334;49.982;8.398;2024-01-07T01:25:37;5.87;;;3.30;;
8592;SDS011;4334;49.982;8.398;2024-01-07T01:28:06;5.60;;;3.53;;
8592;SDS011;4334;49.982;8.398;2024-01-07T01:30:32;6.73;;;3.80;;
8592;SDS011;4334;49.982;8.398;2024-01-07T01:32:59;5.50;;;3.57;;
8592;SDS011;4334;49.982;8.398;2024-01-07T01:35:27;5.20;;;3.27;;
8592;SDS011;4334;49.982;8.398;2024-01-07T01:37:53;7.67;;;3.83;;
8592;SDS011;4334;49.982;8.398;2024-01-07T01:40:20;6.50;;;3.83;;
8592;SDS011;4334;49.982;8.398;2024-01-07T01:42:47;5.73;;;3.47;;
8592;SDS011;4334;49.982;8.398;2024-01-07T01:45:15;6.47;;;3.80;;
8592;SDS011;4334;49.982;8.398;2024-01-07T01:47:42;5.13;;;3.50;;
8592;SDS011;4334;49.982;8.398;2024-01-07T01:50:10;5.40;;;3.80;;
8592;SDS011;4334;49.982;8.398;2024-01-07T01:52:37;5.53;;;3.20;;
8592;SDS011;4334;49.982;8.398;2024-01-07T01:55:04;5.67;;;3.43;;
8592;SDS011;4334;49.982;8.398;2024-01-07T01:57:32;4.30;;;3.03;;
8592;SDS011;4334;49.982;8.398;2024-01-07T02:00:01;4.87;;;3.03;;
8592;SDS011;4334;49.982;8.398;2024-01-07T02:02:31;5.27;;;3.37;;
8592;SDS011;4334;49.982;8.398;2024-01-07T02:04:59;7.00;;;3.83;;
8592;SDS011;4334;49.982;8.398;2024-01-07T02:07:26;5.70;;;3.73;;
8592;SDS011;4334;49.982;8.398;2024-01-07T02:09:53;5.63;;;3.70;;
8592;SDS011;4334;49.982;8.398;2024-01-07T02:12:19;5.40;;;3.30;;
8592;SDS011;4334;49.982;8.398;2024-01-07T02:14:46;4.87;;;3.30;;
8592;SDS011;4334;49.982;8.398;2024-01-07T02:17:13;6.03;;;3.60;;
8592;SDS011;4334;49.982;8.398;2024-01-07T02:19:41;4.47;;;3.23;;
8592;SDS011;4334;49.982;8.398;2024-01-07T02:22:08;4.57;;;3.17;;
8592;SDS011;4334;49.982;8.398;2024-01-07T02:24:36;3.90;;;2.73;;
8592;SDS011;4334;49.982;8.398;2024-01-07T02:27:03;6.23;;;3.73;;
8592;SDS011;4334;49.982;8.398;2024-01-07T02:29:29;4.47;;;2.80;;
8592;SDS011;4334;49.982;8.398;2024-01-07T02:31:56;5.13;;;3.10;;
8592;SDS011;4334;49.982;8.398;2024-01-07T02:34:23;4.37;;;2.93;;
8592;SDS011;4334;49.982;8.398;2024-01-07T02:36:50;5.33;;;3.20;;
8592;SDS011;4334;49.982;8.398;2024-01-07T02:39:16;4.50;;;2.67;;
8592;SDS011;4334;49.982;8.398;2024-01-07T02:41:44;4.17;;;2.67;;
8592;SDS011;4334;49.982;8.398;2024-01-07T02:44:11;4.80;;;2.80;;
8592;SDS011;4334;49.982;8.398;2024-01-07T02:46:38;3.50;;;2.70;;
8592;SDS011;4334;49.982;8.398;2024-01-07T02:49:05;4.00;;;2.60;;
8592;SDS011;4334;49.982;8.398;2024-01-07T02:51:31;2.87;;;2.10;;
8592;SDS011;4334;49.982;8.398;2024-01-07T02:53:58;2.40;;;2.20;;
8592;SDS011;4334;49.982;8.398;2024-01-07T02:56:25;2.27;;;1.90;;
8592;SDS011;4334;49.982;8.398;2024-01-07T02:58:53;2.00;;;1.80;;
8592;SDS011;4334;49.982;8.398;2024-01-07T03:01:21;2.60;;;2.10;;
8592;SDS011;4334;49.982;8.398;2024-01-07T03:03:47;2.40;;;1.80;;
8592;SDS011;4334;49.982;8.398;2024-01-07T03:06:14;3.10;;;2.07;;
8592;SDS011;4334;49.982;8.398;2024-01-07T03:08:41;2.93;;;2.07;;
8592;SDS011;4334;49.982;8.398;2024-01-07T03:11:08;2.73;;;2.10;;
8592;SDS011;4334;49.982;8.398;2024-01-07T03:13:35;2.30;;;1.90;;
8592;SDS011;4334;49.982;8.398;2024-01-07T03:16:03;2.50;;;2.00;;
8592;SDS011;4334;49.982;8.398;2024-01-07T03:18:30;4.17;;;2.50;;
8592;SDS011;4334;49.982;8.398;2024-01-07T03:20:57;2.87;;;2.10;;
8592;SDS011;4334;49.982;8.398;2024-01-07T03:23:24;2.43;;;1.97;;
8592;SDS011;4334;49.982;8.398;2024-01-07T03:25:50;2.43;;;2.10;;
8592;SDS011;4334;49.982;8.398;2024-01-07T03:28:17;3.13;;;2.27;;
8592;SDS011;4334;49.982;8.398;2024-01-07T03:30:44;2.83;;;2.23;;
8592;SDS011;4334;49.982;8.398;2024-01-07T03:33:12;4.70;;;2.50;;
8592;SDS011;4334;49.982;8.398;2024-01-07T03:35:39;3.73;;;2.53;;
8592;SDS011;4334;49.982;8.398;2024-01-07T03:38:06;3.07;;;2.37;;
8592;SDS011;4334;49.982;8.398;2024-01-07T03:40:32;3.60;;;2.40;;
8592;SDS011;4334;49.982;8.398;2024-01-07T03:42:59;3.77;;;2.47;;
8592;SDS011;4334;49.982;8.398;2024-01-07T03:45:26;3.97;;;2.40;;
8592;SDS011;4334;49.982;8.398;2024-01-07T03:47:52;3.13;;;2.57;;
8592;SDS011;4334;49.982;8.398;2024-01-07T03:50:20;3.47;;;2.27;;
8592;SDS011;4334;49.982;8.398;2024-01-07T03:52:47;3.00;;;2.07;;
8592;SDS011;4334;49.982;8.398;2024-01-07T03:55:14;2.90;;;2.33;;
8592;SDS011;4334;49.982;8.398;2024-01-07T03:57:40;3.03;;;2.43;;
8592;SDS011;4334;49.982;8.398;2024-01-07T04:00:07;3.67;;;2.53;;
8592;SDS011;4334;49.982;8.398;2024-01-07T04:02:35;3.37;;;2.40;;
8592;SDS011;4334;49.982;8.398;2024-01-07T04:05:03;2.87;;;2.20;;
8592;SDS011;4334;49.982;8.398;2024-01-07T04:07:31;4.73;;;2.47;;
8592;SDS011;4334;49.982;8.398;2024-01-07T04:09:58;3.40;;;2.07;;
8592;SDS011;4334;49.982;8.398;2024-01-07T04:12:24;3.63;;;2.40;;
8592;SDS011;4334;49.982;8.398;2024-01-07T04:14:51;3.60;;;2.13;;
8592;SDS011;4334;49.982;8.398;2024-01-07T04:17:18;3.43;;;2.30;;
8592;SDS011;4334;49.982;8.398;2024-01-07T04:19:45;3.43;;;2.37;;
8592;SDS011;4334;49.982;8.398;2024-01-07T04:22:11;6.27;;;2.80;;
8592;SDS011;4334;49.982;8.398;2024-01-07T04:24:41;3.47;;;2.27;;
8592;SDS011;4334;49.982;8.398;2024-01-07T04:27:08;4.00;;;2.80;;
8592;SDS011;4334;49.982;8.398;2024-01-07T04:29:35;3.57;;;2.50;;
8592;SDS011;4334;49.982;8.398;2024-01-07T04:32:02;3.60;;;2.43;;
8592;SDS011;4334;49.982;8.398;2024-01-07T04:34:28;3.13;;;2.20;;
8592;SDS011;4334;49.982;8.398;2024-01-07T04:36:54;3.63;;;2.50;;
8592;SDS011;4334;49.982;8.398;2024-01-07T04:39:21;3.80;;;2.30;;
8592;SDS011;4334;49.982;8.398;2024-01-07T04:41:49;2.80;;;2.30;;
8592;SDS011;4334;49.982;8.398;2024-01-07T04:44:16;3.83;;;2.30;;
8592;SDS011;4334;49.982;8.398;2024-01-07T04:46:43;3.57;;;2.37;;
8592;SDS011;4334;49.982;8.398;2024-01-07T04:49:09;7.23;;;2.80;;
8592;SDS011;4334;49.982;8.398;2024-01-07T04:51:36;3.20;;;2.40;;
8592;SDS011;4334;49.982;8.398;2024-01-07T04:54:03;3.30;;;2.30;;
8592;SDS011;4334;49.982;8.398;2024-01-07T04:56:30;3.93;;;2.67;;
8592;SDS011;4334;49.982;8.398;2024-01-07T04:58:58;4.33;;;2.33;;
8592;SDS011;4334;49.982;8.398;2024-01-07T05:01:25;3.13;;;2.20;;
8592;SDS011;4334;49.982;8.398;2024-01-07T05:03:52;3.97;;;2.47;;
8592;SDS011;4334;49.982;8.398;2024-01-07T05:06:18;3.80;;;2.50;;
8592;SDS011;4334;49.982;8.398;2024-01-07T05:08:45;3.17;;;2.10;;
8592;SDS011;4334;49.982;8.398;2024-01-07T05:11:12;3.70;;;2.57;;
8592;SDS011;4334;49.982;8.398;2024-01-07T05:13:38;3.93;;;2.53;;
8592;SDS011;4334;49.982;8.398;2024-01-07T05:16:07;4.87;;;2.47;;
8592;SDS011;4334;49.982;8.398;2024-01-07T05:18:33;3.13;;;2.60;;
8592;SDS011;4334;49.982;8.398;2024-01-07T05:21:00;3.37;;;2.80;;
8592;SDS011;4334;49.982;8.398;2024-01-07T05:23:26;4.07;;;2.73;;
8592;SDS011;4334;49.982;8.398;2024-01-07T05:25:53;3.73;;;2.67;;
8592;SDS011;4334;49.982;8.398;2024-01-07T05:28:20;3.90;;;2.60;;
8592;SDS011;4334;49.982;8.398;2024-01-07T05:30:46;3.47;;;2.67;;
8592;SDS011;4334;49.982;8.398;2024-01-07T05:33:14;7.30;;;2.40;;
8592;SDS011;4334;49.982;8.398;2024-01-07T05:35:40;5.27;;;2.97;;
8592;SDS011;4334;49.982;8.398;2024-01-07T05:38:07;4.33;;;3.00;;
8592;SDS011;4334;49.982;8.398;2024-01-07T05:40:34;4.93;;;3.60;;
8592;SDS011;4334;49.982;8.398;2024-01-07T05:43:00;6.23;;;3.40;;
8592;SDS011;4334;49.982;8.398;2024-01-07T05:45:27;5.97;;;3.40;;
8592;SDS011;4334;49.982;8.398;2024-01-07T05:47:54;6.37;;;4.40;;
8592;SDS011;4334;49.982;8.398;2024-01-07T05:50:22;8.47;;;4.67;;
8592;SDS011;4334;49.982;8.398;2024-01-07T05:52:48;7.63;;;4.10;;
8592;SDS011;4334;49.982;8.398;2024-01-07T05:55:15;8.53;;;5.00;;
8592;SDS011;4334;49.982;8.398;2024-01-07T05:57:42;8.53;;;4.63;;
8592;SDS011;4334;49.982;8.398;2024-01-07T06:00:09;7.27;;;4.83;;
8592;SDS011;4334;49.982;8.398;2024-01-07T06:02:37;10.37;;;5.10;;
8592;SDS011;4334;49.982;8.398;2024-01-07T06:05:04;10.53;;;5.20;;
8592;SDS011;4334;49.982;8.398;2024-01-07T06:07:33;9.27;;;4.53;;
8592;SDS011;4334;49.982;8.398;2024-01-07T06:10:00;10.97;;;5.50;;
8592;SDS011;4334;49.982;8.398;2024-01-07T06:12:27;9.53;;;5.80;;
8592;SDS011;4334;49.982;8.398;2024-01-07T06:14:53;10.30;;;5.87;;
8592;SDS011;4334;49.982;8.398;2024-01-07T06:17:20;9.33;;;5.40;;
8592;SDS011;4334;49.982;8.398;2024-01-07T06:19:47;9.80;;;5.90;;
8592;SDS011;4334;49.982;8.398;2024-01-07T06:22:13;13.53;;;6.47;;
8592;SDS011;4334;49.982;8.398;2024-01-07T06:24:41;10.93;;;6.33;;
8592;SDS011;4334;49.982;8.398;2024-01-07T06:27:08;10.60;;;5.90;;
8592;SDS011;4334;49.982;8.398;2024-01-07T06:29:35;12.50;;;6.53;;
8592;SDS011;4334;49.982;8.398;2024-01-07T06:32:01;10.93;;;6.67;;
8592;SDS011;4334;49.982;8.398;2024-01-07T06:34:28;7.80;;;5.10;;
8592;SDS011;4334;49.982;8.398;2024-01-07T06:36:55;8.73;;;4.90;;
8592;SDS011;4334;49.982;8.398;2024-01-07T06:39:22;8.60;;;5.13;;
8592;SDS011;4334;49.982;8.398;2024-01-07T06:41:50;10.27;;;5.13;;
8592;SDS011;4334;49.982;8.398;2024-01-07T06:44:16;9.27;;;5.50;;
8592;SDS011;4334;49.982;8.398;2024-01-07T06:46:43;6.47;;;4.50;;
8592;SDS011;4334;49.982;8.398;2024-01-07T06:49:09;7.63;;;4.80;;
8592;SDS011;4334;49.982;8.398;2024-01-07T06:51:37;8.53;;;5.07;;
8592;SDS011;4334;49.982;8.398;2024-01-07T06:54:03;6.00;;;3.97;;
8592;SDS011;4334;49.982;8.398;2024-01-07T06:56:31;7.47;;;4.00;;
8592;SDS011;4334;49.982;8.398;2024-01-07T06:58:58;6.27;;;4.03;;
8592;SDS011;4334;49.982;8.398;2024-01-07T07:01:25;6.13;;;3.80;;
8592;SDS011;4334;49.982;8.398;2024-01-07T07:03:52;9.40;;;3.97;;
8592;SDS011;4334;49.982;8.398;2024-01-07T07:06:18;6.13;;;3.57;;
8592;SDS011;4334;49.982;8.398;2024-01-07T07:08:45;4.70;;;3.40;;
8592;SDS011;4334;49.982;8.398;2024-01-07T07:11:12;5.53;;;3.37;;
8592;SDS011;4334;49.982;8.398;2024-01-07T07:13:39;5.10;;;3.40;;
8592;SDS011;4334;49.982;8.398;2024-01-07T07:16:07;5.93;;;3.67;;
8592;SDS011;4334;49.982;8.398;2024-01-07T07:18:33;5.97;;;3.70;;
8592;SDS011;4334;49.982;8.398;2024-01-07T07:21:00;5.93;;;3.73;;
8592;SDS011;4334;49.982;8.398;2024-01-07T07:23:27;5.13;;;3.47;;
8592;SDS011;4334;49.982;8.398;2024-01-07T07:25:53;6.77;;;4.13;;
8592;SDS011;4334;49.982;8.398;2024-01-07T07:28:20;8.13;;;3.60;;
8592;SDS011;4334;49.982;8.398;2024-01-07T07:30:47;6.10;;;3.93;;
8592;SDS011;4334;49.982;8.398;2024-01-07T07:33:15;5.80;;;3.80;;
8592;SDS011;4334;49.982;8.398;2024-01-07T07:35:41;6.07;;;3.73;;
8592;SDS011;4334;49.982;8.398;2024-01-07T07:38:08;6.23;;;4.30;;
8592;SDS011;4334;49.982;8.398;2024-01-07T07:40:35;7.50;;;4.10;;
8592;SDS011;4334;49.982;8.398;2024-01-07T07:43:02;7.10;;;4.07;;
8592;SDS011;4334;49.982;8.398;2024-01-07T07:45:28;7.23;;;4.17;;
8592;SDS011;4334;49.982;8.398;2024-01-07T07:47:55;6.53;;;4.43;;
8592;SDS011;4334;49.982;8.398;2024-01-07T07:50:23;7.33;;;3.87;;
8592;SDS011;4334;49.982;8.398;2024-01-07T07:52:50;8.67;;;4.70;;
8592;SDS011;4334;49.982;8.398;2024-01-07T07:55:17;7.47;;;4.50;;
8592;SDS011;4334;49.982;8.398;2024-01-07T07:57:43;8.80;;;4.43;;
8592;SDS011;4334;49.982;8.398;2024-01-07T08:00:11;7.17;;;4.63;;
8592;SDS011;4334;49.982;8.398;2024-01-07T08:02:38;6.37;;;4.33;;
8592;SDS011;4334;49.982;8.398;2024-01-07T08:05:05;8.07;;;4.67;;
8592;SDS011;4334;49.982;8.398;2024-01-07T08:07:34;8.93;;;4.47;;
8592;SDS011;4334;49.982;8.398;2024-01-07T08:10:00;9.27;;;5.30;;
8592;SDS011;4334;49.982;8.398;2024-01-07T08:12:27;8.63;;;5.13;;
8592;SDS011;4334;49.982;8.398;2024-01-07T08:14:54;7.70;;;4.40;;
8592;SDS011;4334;49.982;8.398;2024-01-07T08:17:21;7.17;;;4.10;;
8592;SDS011;4334;49.982;8.398;2024-01-07T08:19:47;8.50;;;5.00;;
8592;SDS011;4334;49.982;8.398;2024-01-07T08:22:14;8.67;;;5.40;;
8592;SDS011;4334;49.982;8.398;2024-01-07T08:24:42;7.93;;;4.77;;
8592;SDS011;4334;49.982;8.398;2024-01-07T08:27:08;9.70;;;5.00;;
8592;SDS011;4334;49.982;8.398;2024-01-07T08:29:35;9.07;;;5.23;;
8592;SDS011;4334;49.982;8.398;2024-01-07T08:32:02;9.83;;;5.03;;
8592;SDS011;4334;49.982;8.398;2024-01-07T08:34:29;10.10;;;5.27;;
8592;SDS011;4334;49.982;8.398;2024-01-07T08:36:55;9.87;;;5.43;;
8592;SDS011;4334;49.982;8.398;2024-01-07T08:39:22;8.60;;;4.80;;
8592;SDS011;4334;49.982;8.398;2024-01-07T08:41:52;9.00;;;5.43;;
8592;SDS011;4334;49.982;8.398;2024-01-07T08:44:19;10.63;;;5.83;;
8592;SDS011;4334;49.982;8.398;2024-01-07T08:46:46;9.20;;;5.33;;
8592;SDS011;4334;49.982;8.398;2024-01-07T08:49:13;8.57;;;5.17;;
8592;SDS011;4334;49.982;8.398;2024-01-07T08:51:39;10.10;;;5.50;;
8592;SDS011;4334;49.982;8.398;2024-01-07T08:54:06;9.27;;;5.27;;
8592;SDS011;4334;49.982;8.398;2024-01-07T08:56:33;6.90;;;4.50;;
8592;SDS011;4334;49.982;8.398;2024-01-07T08:59:01;8.37;;;4.80;;
8592;SDS011;4334;49.982;8.398;2024-01-07T09:01:29;7.13;;;4.77;;
8592;SDS011;4334;49.982;8.398;2024-01-07T09:03:56;8.73;;;4.70;;
8592;SDS011;4334;49.982;8.398;2024-01-07T09:06:22;10.00;;;5.13;;
8592;SDS011;4334;49.982;8.398;2024-01-07T09:08:49;12.40;;;5.30;;
8592;SDS011;4334;49.982;8.398;2024-01-07T09:11:18;8.30;;;4.90;;
8592;SDS011;4334;49.982;8.398;2024-01-07T09:13:45;9.73;;;4.87;;
8592;SDS011;4334;49.982;8.398;2024-01-07T09:16:15;7.37;;;4.67;;
8592;SDS011;4334;49.982;8.398;2024-01-07T09:18:42;7.87;;;4.43;;
8592;SDS011;4334;49.982;8.398;2024-01-07T09:21:09;8.57;;;4.87;;
8592;SDS011;4334;49.982;8.398;2024-01-07T09:23:36;9.00;;;4.83;;
8592;SDS011;4334;49.982;8.398;2024-01-07T09:26:03;8.90;;;5.13;;
8592;SDS011;4334;49.982;8.398;2024-01-07T09:28:29;7.97;;;4.30;;
8592;SDS011;4334;49.982;8.398;2024-01-07T09:30:56;7.17;;;4.63;;
8592;SDS011;4334;49.982;8.398;2024-01-07T09:33:24;6.90;;;4.00;;
8592;SDS011;4334;49.982;8.398;2024-01-07T09:35:51;7.97;;;4.53;;
8592;SDS011;4334;49.982;8.398;2024-01-07T09:38:19;7.23;;;4.90;;
8592;SDS011;4334;49.982;8.398;2024-01-07T09:40:45;8.70;;;5.20;;
8592;SDS011;4334;49.982;8.398;2024-01-07T09:43:12;7.83;;;4.23;;
8592;SDS011;4334;49.982;8.398;2024-01-07T09:45:40;7.03;;;4.63;;
8592;SDS011;4334;49.982;8.398;2024-01-07T09:48:11;8.77;;;4.73;;
8592;SDS011;4334;49.982;8.398;2024-01-07T09:50:39;9.03;;;5.00;;
8592;SDS011;4334;49.982;8.398;2024-01-07T09:53:06;6.97;;;4.57;;
8592;SDS011;4334;49.982;8.398;2024-01-07T09:55:37;9.40;;;4.47;;
8592;SDS011;4334;49.982;8.398;2024-01-07T09:58:12;7.07;;;4.47;;
8592;SDS011;4334;49.982;8.398;2024-01-07T10:00:38;7.57;;;5.10;;
8592;SDS011;4334;49.982;8.398;2024-01-07T10:03:05;7.70;;;4.37;;
8592;SDS011;4334;49.982;8.398;2024-01-07T10:05:32;6.13;;;3.60;;
8592;SDS011;4334;49.982;8.398;2024-01-07T10:08:00;7.03;;;4.30;;
8592;SDS011;4334;49.982;8.398;2024-01-07T10:10:28;5.03;;;3.37;;
8592;SDS011;4334;49.982;8.398;2024-01-07T10:12:55;8.47;;;4.30;;
8592;SDS011;4334;49.982;8.398;2024-01-07T10:15:22;8.57;;;3.30;;
8592;SDS011;4334;49.982;8.398;2024-01-07T10:17:48;6.23;;;4.13;;
8592;SDS011;4334;49.982;8.398;2024-01-07T10:20:20;5.07;;;3.43;;
8592;SDS011;4334;49.982;8.398;2024-01-07T10:22:49;6.33;;;4.17;;
8592;SDS011;4334;49.982;8.398;2024-01-07T10:25:18;5.73;;;3.67;;
8592;SDS011;4334;49.982;8.398;2024-01-07T10:27:45;6.33;;;4.10;;
8592;SDS011;4334;49.982;8.398;2024-01-07T10:30:12;6.43;;;3.70;;
8592;SDS011;4334;49.982;8.398;2024-01-07T10:32:39;5.67;;;4.00;;
8592;SDS011;4334;49.982;8.398;2024-01-07T10:35:08;5.00;;;3.60;;
8592;SDS011;4334;49.982;8.398;2024-01-07T10:37:39;5.37;;;3.57;;
8592;SDS011;4334;49.982;8.398;2024-01-07T10:40:06;6.07;;;3.90;;
8592;SDS011;4334;49.982;8.398;2024-01-07T10:42:35;5.83;;;4.00;;
8592;SDS011;4334;49.982;8.398;2024-01-07T10:45:04;5.13;;;3.93;;
8592;SDS011;4334;49.982;8.398;2024-01-07T10:47:32;7.70;;;4.20;;
8592;SDS011;4334;49.982;8.398;2024-01-07T10:50:02;7.10;;;3.87;;
8592;SDS011;4334;49.982;8.398;2024-01-07T10:52:29;7.07;;;3.67;;
8592;SDS011;4334;49.982;8.398;2024-01-07T10:55:00;9.10;;;4.63;;
8592;SDS011;4334;49.982;8.398;2024-01-07T10:57:37;7.27;;;4.30;;
8592;SDS011;4334;49.982;8.398;2024-01-07T11:00:09;8.77;;;4.57;;
8592;SDS011;4334;49.982;8.398;2024-01-07T11:02:45;7.97;;;3.97;;
8592;SDS011;4334;49.982;8.398;2024-01-07T11:05:20;6.53;;;3.77;;
8592;SDS011;4334;49.982;8.398;2024-01-07T11:07:53;5.40;;;4.27;;
8592;SDS011;4334;49.982;8.398;2024-01-07T11:10:28;4.80;;;3.63;;
8592;SDS011;4334;49.982;8.398;2024-01-07T11:13:05;6.43;;;4.10;;
8592;SDS011;4334;49.982;8.398;2024-01-07T11:18:17;8.00;;;4.13;;
8592;SDS011;4334;49.982;8.398;2024-01-07T11:20:45;5.87;;;3.80;;
8592;SDS011;4334;49.982;8.398;2024-01-07T11:23:28;7.57;;;4.27;;
8592;SDS011;4334;49.982;8.398;2024-01-07T11:25:58;8.47;;;4.50;;
8592;SDS011;4334;49.982;8.398;2024-01-07T11:28:45;5.83;;;3.90;;
8592;SDS011;4334;49.982;8.398;2024-01-07T11:31:13;6.80;;;4.50;;
8592;SDS011;4334;49.982;8.398;2024-01-07T11:33:41;6.60;;;4.07;;
8592;SDS011;4334;49.982;8.398;2024-01-07T11:36:10;7.77;;;4.00;;
8592;SDS011;4334;49.982;8.398;2024-01-07T11:38:38;6.17;;;3.90;;
8592;SDS011;4334;49.982;8.398;2024-01-07T11:41:07;6.10;;;4.13;;
8592;SDS011;4334;49.982;8.398;2024-01-07T11:43:35;4.77;;;3.33;;
8592;SDS011;4334;49.982;8.398;2024-01-07T11:46:03;5.60;;;3.90;;
8592;SDS011;4334;49.982;8.398;2024-01-07T11:48:30;6.03;;;3.70;;
8592;SDS011;4334;49.982;8.398;2024-01-07T11:50:57;8.50;;;4.07;;
8592;SDS011;4334;49.982;8.398;2024-01-07T11:53:23;6.70;;;4.33;;
8592;SDS011;4334;49.982;8.398;2024-01-07T11:55:50;5.70;;;4.00;;
8592;SDS011;4334;49.982;8.398;2024-01-07T11:58:17;6.90;;;4.27;;
8592;SDS011;4334;49.982;8.398;2024-01-07T12:00:44;7.07;;;4.10;;
8592;SDS011;4334;49.982;8.398;2024-01-07T12:03:12;7.33;;;4.20;;
8592;SDS011;4334;49.982;8.398;2024-01-07T12:05:40;6.30;;;4.30;;
8592;SDS011;4334;49.982;8.398;2024-01-07T12:08:06;8.20;;;4.43;;
8592;SDS011;4334;49.982;8.398;2024-01-07T12:10:33;5.70;;;3.83;;
8592;SDS011;4334;49.982;8.398;2024-01-07T12:13:00;6.67;;;4.33;;
8592;SDS011;4334;49.982;8.398;2024-01-07T12:15:28;6.80;;;4.07;;
8592;SDS011;4334;49.982;8.398;2024-01-07T12:17:56;6.80;;;3.67;;
8592;SDS011;4334;49.982;8.398;2024-01-07T12:20:25;6.87;;;4.00;;
8592;SDS011;4334;49.982;8.398;2024-01-07T12:22:54;6.93;;;3.87;;
8592;SDS011;4334;49.982;8.398;2024-01-07T12:25:22;6.77;;;4.00;;
8592;SDS011;4334;49.982;8.398;2024-01-07T12:27:49;6.87;;;4.27;;
8592;SDS011;4334;49.982;8.398;2024-01-07T12:30:18;6.50;;;4.30;;
8592;SDS011;4334;49.982;8.398;2024-01-07T12:32:45;6.53;;;3.83;;
8592;SDS011;4334;49.982;8.398;2024-01-07T12:35:12;6.30;;;3.97;;
8592;SDS011;4334;49.982;8.398;2024-01-07T12:37:41;9.60;;;4.37;;
8592;SDS011;4334;49.982;8.398;2024-01-07T12:40:09;5.97;;;3.53;;
8592;SDS011;4334;49.982;8.398;2024-01-07T12:42:36;7.20;;;4.13;;
8592;SDS011;4334;49.982;8.398;2024-01-07T12:45:05;7.57;;;4.70;;
8592;SDS011;4334;49.982;8.398;2024-01-07T12:47:32;9.30;;;3.80;;
8592;SDS011;4334;49.982;8.398;2024-01-07T12:50:00;6.57;;;3.87;;
8592;SDS011;4334;49.982;8.398;2024-01-07T12:52:26;6.00;;;3.83;;
8592;SDS011;4334;49.982;8.398;2024-01-07T12:54:54;6.67;;;4.50;;
8592;SDS011;4334;49.982;8.398;2024-01-07T12:57:22;5.90;;;3.57;;
8592;SDS011;4334;49.982;8.398;2024-01-07T12:59:48;7.10;;;4.17;;
8592;SDS011;4334;49.982;8.398;2024-01-07T13:02:15;7.97;;;4.17;;
8592;SDS011;4334;49.982;8.398;2024-01-07T13:04:42;7.27;;;4.67;;
8592;SDS011;4334;49.982;8.398;2024-01-07T13:07:08;8.07;;;4.13;;
8592;SDS011;4334;49.982;8.398;2024-01-07T13:09:35;7.73;;;4.00;;
8592;SDS011;4334;49.982;8.398;2024-01-07T13:12:03;6.03;;;3.93;;
8592;SDS011;4334;49.982;8.398;2024-01-07T13:14:30;6.40;;;4.10;;
8592;SDS011;4334;49.982;8.398;2024-01-07T13:16:57;3.97;;;2.70;;
8592;SDS011;4334;49.982;8.398;2024-01-07T13:19:24;11.20;;;4.50;;
8592;SDS011;4334;49.982;8.398;2024-01-07T13:21:52;4.73;;;3.33;;
8592;SDS011;4334;49.982;8.398;2024-01-07T13:24:20;8.43;;;3.50;;
8592;SDS011;4334;49.982;8.398;2024-01-07T13:26:47;5.67;;;3.77;;
8592;SDS011;4334;49.982;8.398;2024-01-07T13:29:15;5.07;;;2.93;;
8592;SDS011;4334;49.982;8.398;2024-01-07T13:31:42;6.27;;;4.20;;
8592;SDS011;4334;49.982;8.398;2024-01-07T13:34:09;9.00;;;3.40;;
8592;SDS011;4334;49.982;8.398;2024-01-07T13:36:35;6.57;;;3.47;;
8592;SDS011;4334;49.982;8.398;2024-01-07T13:39:02;5.87;;;3.40;;
8592;SDS011;4334;49.982;8.398;2024-01-07T13:41:32;7.07;;;3.23;;
8592;SDS011;4334;49.982;8.398;2024-01-07T13:43:59;4.87;;;3.43;;
8592;SDS011;4334;49.982;8.398;2024-01-07T13:46:29;6.70;;;3.83;;
8592;SDS011;4334;49.982;8.398;2024-01-07T13:48:56;7.50;;;4.07;;
8592;SDS011;4334;49.982;8.398;2024-01-07T13:51:22;6.17;;;3.37;;
8592;SDS011;4334;49.982;8.398;2024-01-07T13:53:49;5.27;;;3.57;;
8592;SDS011;4334;49.982;8.398;2024-01-07T13:56:16;5.60;;;3.73;;
8592;SDS011;4334;49.982;8.398;2024-01-07T13:58:43;4.93;;;3.53;;
8592;SDS011;4334;49.982;8.398;2024-01-07T14:01:12;4.40;;;3.20;;
8592;SDS011;4334;49.982;8.398;2024-01-07T14:03:42;3.63;;;2.70;;
8592;SDS011;4334;49.982;8.398;2024-01-07T14:06:09;5.77;;;3.80;;
8592;SDS011;4334;49.982;8.398;2024-01-07T14:08:36;6.33;;;3.73;;
8592;SDS011;4334;49.982;8.398;2024-01-07T14:11:02;4.87;;;3.10;;
8592;SDS011;4334;49.982;8.398;2024-01-07T14:13:32;4.57;;;3.00;;
8592;SDS011;4334;49.982;8.398;2024-01-07T14:15:59;7.13;;;3.20;;
8592;SDS011;4334;49.982;8.398;2024-01-07T14:18:25;5.40;;;3.23;;
8592;SDS011;4334;49.982;8.398;2024-01-07T14:20:54;7.17;;;3.80;;
8592;SDS011;4334;49.982;8.398;2024-01-07T14:23:20;5.40;;;3.70;;
8592;SDS011;4334;49.982;8.398;2024-01-07T14:25:47;8.10;;;3.30;;
8592;SDS011;4334;49.982;8.398;2024-01-07T14:28:14;5.80;;;3.07;;
8592;SDS011;4334;49.982;8.398;2024-01-07T14:30:40;5.13;;;3.13;;
8592;SDS011;4334;49.982;8.398;2024-01-07T14:33:07;6.43;;;3.67;;
8592;SDS011;4334;49.982;8.398;2024-01-07T14:35:34;4.00;;;2.97;;
8592;SDS011;4334;49.982;8.398;2024-01-07T14:38:02;5.77;;;3.23;;
8592;SDS011;4334;49.982;8.398;2024-01-07T14:40:29;5.27;;;3.33;;
8592;SDS011;4334;49.982;8.398;2024-01-07T14:42:56;4.20;;;2.97;;
8592;SDS011;4334;49.982;8.398;2024-01-07T14:45:24;3.07;;;2.70;;
8592;SDS011;4334;49.982;8.398;2024-01-07T14:47:51;4.10;;;2.60;;
8592;SDS011;4334;49.982;8.398;2024-01-07T14:50:18;10.93;;;3.10;;
8592;SDS011;4334;49.982;8.398;2024-01-07T14:52:45;4.90;;;3.13;;
8592;SDS011;4334;49.982;8.398;2024-01-07T14:55:13;9.60;;;3.37;;
8592;SDS011;4334;49.982;8.398;2024-01-07T14:57:40;4.27;;;2.77;;
8592;SDS011;4334;49.982;8.398;2024-01-07T15:00:07;5.47;;;3.30;;
8592;SDS011;4334;49.982;8.398;2024-01-07T15:02:34;5.63;;;3.03;;
8592;SDS011;4334;49.982;8.398;2024-01-07T15:05:01;4.93;;;3.00;;
8592;SDS011;4334;49.982;8.398;2024-01-07T15:07:28;3.60;;;2.50;;
8592;SDS011;4334;49.982;8.398;2024-01-07T15:09:55;5.37;;;3.07;;
8592;SDS011;4334;49.982;8.398;2024-01-07T15:12:23;3.37;;;2.70;;
8592;SDS011;4334;49.982;8.398;2024-01-07T15:14:49;3.47;;;2.50;;
8592;SDS011;4334;49.982;8.398;2024-01-07T15:17:16;4.20;;;2.87;;
8592;SDS011;4334;49.982;8.398;2024-01-07T15:19:43;4.73;;;2.70;;